Time;durP1;ratioP1;P1;durP2;ratioP2;P2;SDS_P1;SDS_P2;PMS_P1;PMS_P2;Temp;Humidity;BMP_temperature;BMP_pressure;BME280_temperature;BME280_humidity;BME280_pressure;Samples;Min_cycle;Max_cycle;Signal;HPM_P1;HPM_P2
2021/05/19 00:02:06;;;;;;;;;;;11.70;61.10;;;;;;5033336;28;19960;-82
2021/05/19 00:04:31;;;;;;;;;;;11.80;61.40;;;;;;5033581;28;20397;-82
2021/05/19 00:06:57;;;;;;;;;;;11.80;61.50;;;;;;5021649;28;19916;-81
2021/05/19 00:09:22;;;;;;;;;;;11.80;61.70;;;;;;5035463;28;19913;-82
2021/05/19 00:11:47;;;;;;;;;;;11.80;61.90;;;;;;5024461;28;19937;-82
2021/05/19 00:14:15;;;;;;;;;;;11.80;62.10;;;;;;5037377;28;19913;-80
2021/05/19 00:16:41;;;;;;;;;;;11.80;62.30;;;;;;5027386;28;20001;-82
2021/05/19 00:19:07;;;;;;;;;;;11.80;62.50;;;;;;5019232;28;19915;-82
2021/05/19 00:21:32;;;;;;;;;;;11.80;62.60;;;;;;5029011;28;19960;-82
2021/05/19 00:23:58;;;;;;;;;;;11.80;62.80;;;;;;5020362;28;19913;-82
2021/05/19 00:26:25;;;;;;;;;;;11.80;62.90;;;;;;5016817;28;19956;-82
2021/05/19 00:28:52;;;;;;;;;;;11.70;63.00;;;;;;5024635;28;20427;-82
2021/05/19 00:31:20;;;;;;;;;;;11.70;63.20;;;;;;5023014;28;20329;-82
2021/05/19 00:33:45;;;;;;;;;;;11.70;63.50;;;;;;5023541;28;20381;-83
2021/05/19 00:36:11;;;;;;;;;;;11.70;63.70;;;;;;5019868;28;19920;-80
2021/05/19 00:38:37;;;;;;;;;;;11.60;63.90;;;;;;5030546;28;19920;-82
2021/05/19 00:41:02;;;;;;;;;;;11.60;64.10;;;;;;5023229;28;19913;-81
2021/05/19 00:43:28;;;;;;;;;;;11.60;64.40;;;;;;5020105;28;19917;-82
2021/05/19 00:45:53;;;;;;;;;;;11.60;64.60;;;;;;5019999;28;19941;-83
2021/05/19 00:48:19;;;;;;;;;;;11.60;64.80;;;;;;5017922;28;19920;-82
2021/05/19 00:50:45;;;;;;;;;;;11.60;64.90;;;;;;5031832;28;19960;-82
2021/05/19 00:53:10;;;;;;;;;;;11.60;65.10;;;;;;5003378;28;19917;-82
2021/05/19 00:55:36;;;;;;;;;;;11.60;65.30;;;;;;5034541;28;19913;-82
2021/05/19 00:58:02;;;;;;;;;;;11.60;65.60;;;;;;5034416;28;19921;-82
2021/05/19 01:00:27;;;;;;;;;;;11.60;65.80;;;;;;5032758;28;19992;-82
2021/05/19 01:02:54;;;;;;;;;;;11.60;66.00;;;;;;5021657;28;20000;-81
2021/05/19 01:05:29;;;;;;;;;;;11.50;66.10;;;;;;5027689;28;19967;-82
2021/05/19 01:10:38;;;;;;;;;;;11.40;66.60;;;;;;5029994;28;19920;-81
2021/05/19 01:13:04;;;;;;;;;;;11.40;67.00;;;;;;5023930;28;19913;-82
2021/05/19 01:15:29;;;;;;;;;;;11.40;67.20;;;;;;5022789;28;19964;-82
2021/05/19 01:17:55;;;;;;;;;;;11.30;67.50;;;;;;5034434;28;19988;-82
2021/05/19 01:20:20;;;;;;;;;;;11.30;67.80;;;;;;5030604;28;20016;-82
2021/05/19 01:22:46;;;;;;;;;;;11.20;68.00;;;;;;5019672;28;19913;-81
2021/05/19 01:25:12;;;;;;;;;;;11.20;68.30;;;;;;5034688;28;20285;-82
2021/05/19 01:27:37;;;;;;;;;;;11.20;68.60;;;;;;5031020;28;19916;-82
2021/05/19 01:30:04;;;;;;;;;;;11.20;68.90;;;;;;5020428;28;19924;-83
2021/05/19 01:32:30;;;;;;;;;;;11.10;69.10;;;;;;5029016;28;19949;-82
2021/05/19 01:34:55;;;;;;;;;;;11.10;69.30;;;;;;5019167;28;19963;-83
2021/05/19 01:37:21;;;;;;;;;;;11.10;69.60;;;;;;5036853;28;19920;-83
2021/05/19 01:39:47;;;;;;;;;;;11.10;69.90;;;;;;5036285;28;20000;-81
2021/05/19 01:42:12;;;;;;;;;;;11.10;70.20;;;;;;5029857;28;19913;-83
2021/05/19 01:44:38;;;;;;;;;;;11.00;70.30;;;;;;5007854;28;19920;-82
2021/05/19 01:47:05;;;;;;;;;;;11.00;70.60;;;;;;5018633;28;19917;-83
2021/05/19 01:49:32;;;;;;;;;;;10.90;70.80;;;;;;5021846;28;19944;-83
2021/05/19 01:52:01;;;;;;;;;;;10.90;71.10;;;;;;5037134;28;19917;-83
2021/05/19 01:54:28;;;;;;;;;;;10.90;72.30;;;;;;5002794;28;19913;-82
2021/05/19 01:56:53;;;;;;;;;;;10.80;71.70;;;;;;5025396;28;19967;-83
2021/05/19 01:59:19;;;;;;;;;;;10.70;71.90;;;;;;5019440;28;19921;-82
2021/05/19 02:01:44;;;;;;;;;;;10.70;72.40;;;;;;5022282;28;19972;-82
2021/05/19 02:04:11;;;;;;;;;;;10.60;72.60;;;;;;5007386;28;19972;-82
2021/05/19 02:06:42;;;;;;;;;;;10.60;73.00;;;;;;5012962;28;19924;-81
2021/05/19 02:09:08;;;;;;;;;;;10.60;73.40;;;;;;5021884;28;20048;-81
2021/05/19 02:11:33;;;;;;;;;;;10.50;73.60;;;;;;5008617;28;20410;-82
2021/05/19 02:14:00;;;;;;;;;;;10.50;74.10;;;;;;5026487;28;19913;-80
2021/05/19 02:16:25;;;;;;;;;;;10.40;74.40;;;;;;5023489;28;19939;-82
2021/05/19 02:18:53;;;;;;;;;;;10.40;74.80;;;;;;5029435;28;19916;-82
2021/05/19 02:21:18;;;;;;;;;;;10.30;75.10;;;;;;5029571;28;19967;-82
2021/05/19 02:23:44;;;;;;;;;;;10.20;76.30;;;;;;5031272;28;19914;-83
2021/05/19 02:26:09;;;;;;;;;;;10.20;76.00;;;;;;5036320;28;19924;-82
2021/05/19 02:28:35;;;;;;;;;;;10.10;76.40;;;;;;5021133;28;19955;-82
2021/05/19 02:31:00;;;;;;;;;;;10.10;76.90;;;;;;5037448;28;19914;-82
2021/05/19 02:33:26;;;;;;;;;;;10.00;77.30;;;;;;5025726;28;19944;-82
2021/05/19 02:35:53;;;;;;;;;;;10.00;77.80;;;;;;5017561;28;20895;-80
2021/05/19 02:38:18;;;;;;;;;;;10.00;78.30;;;;;;5025932;28;19924;-82
2021/05/19 02:40:44;;;;;;;;;;;9.90;80.00;;;;;;5020881;28;19909;-82
2021/05/19 02:43:09;;;;;;;;;;;9.90;80.50;;;;;;5029976;28;19972;-82
2021/05/19 02:45:35;;;;;;;;;;;9.90;80.90;;;;;;5011864;28;19928;-82
2021/05/19 02:48:00;;;;;;;;;;;9.80;81.40;;;;;;5037909;28;19917;-82
2021/05/19 02:50:26;;;;;;;;;;;9.80;82.00;;;;;;5030623;28;20004;-82
2021/05/19 02:52:54;;;;;;;;;;;9.70;82.40;;;;;;5035833;28;19917;-82
2021/05/19 02:55:20;;;;;;;;;;;9.70;83.00;;;;;;5022734;28;19920;-82
2021/05/19 02:57:45;;;;;;;;;;;9.70;83.60;;;;;;5033369;28;19913;-83
2021/05/19 03:00:11;;;;;;;;;;;9.70;84.20;;;;;;5038990;28;20170;-82
2021/05/19 03:02:37;;;;;;;;;;;9.70;84.90;;;;;;5024695;28;19924;-82
2021/05/19 03:05:03;;;;;;;;;;;9.60;85.40;;;;;;5023904;28;19913;-80
2021/05/19 03:07:28;;;;;;;;;;;9.60;86.00;;;;;;5029842;28;19914;-83
2021/05/19 03:09:54;;;;;;;;;;;9.60;86.70;;;;;;5021318;28;19975;-82
2021/05/19 03:12:19;;;;;;;;;;;9.60;87.30;;;;;;5021816;28;19913;-82
2021/05/19 03:14:45;;;;;;;;;;;9.50;87.80;;;;;;5037394;28;19988;-82
2021/05/19 03:17:10;;;;;;;;;;;9.50;88.50;;;;;;5020693;28;19956;-81
2021/05/19 03:19:36;;;;;;;;;;;9.50;89.20;;;;;;5038427;28;19918;-82
2021/05/19 03:22:01;;;;;;;;;;;9.50;89.90;;;;;;5024414;28;19941;-82
2021/05/19 03:24:27;;;;;;;;;;;9.40;90.20;;;;;;5021882;28;20349;-83
2021/05/19 03:26:52;;;;;;;;;;;9.40;90.50;;;;;;5017696;28;20008;-83
2021/05/19 03:29:18;;;;;;;;;;;9.40;90.80;;;;;;5038450;28;20407;-82
2021/05/19 03:31:43;;;;;;;;;;;9.40;91.10;;;;;;5006428;28;20285;-82
2021/05/19 03:34:09;;;;;;;;;;;9.40;91.40;;;;;;5018003;28;19956;-81
2021/05/19 03:36:34;;;;;;;;;;;9.40;91.70;;;;;;5018740;28;20359;-82
2021/05/19 03:39:00;;;;;;;;;;;9.40;92.00;;;;;;5035456;28;20004;-82
2021/05/19 03:41:25;;;;;;;;;;;9.40;92.30;;;;;;5031598;28;20329;-82
2021/05/19 03:43:51;;;;;;;;;;;9.40;92.70;;;;;;5024520;28;19936;-83
2021/05/19 03:46:19;;;;;;;;;;;9.40;92.90;;;;;;5034410;28;19963;-83
2021/05/19 03:48:44;;;;;;;;;;;9.50;93.30;;;;;;5035540;28;19913;-81
2021/05/19 03:51:10;;;;;;;;;;;9.50;93.60;;;;;;5037156;28;19924;-82
2021/05/19 03:53:36;;;;;;;;;;;9.50;93.90;;;;;;5037366;28;19967;-82
2021/05/19 03:56:02;;;;;;;;;;;9.50;94.10;;;;;;5033588;28;19913;-82
2021/05/19 03:58:27;;;;;;;;;;;9.60;94.40;;;;;;5037362;28;20332;-83
2021/05/19 04:00:53;;;;;;;;;;;9.60;94.70;;;;;;5031900;28;19953;-83
2021/05/19 04:03:18;;;;;;;;;;;9.60;95.00;;;;;;5021431;28;19914;-83
2021/05/19 04:05:45;;;;;;;;;;;9.60;95.30;;;;;;5024194;28;19917;-82
2021/05/19 04:08:10;;;;;;;;;;;9.60;95.60;;;;;;5025443;28;19956;-81
2021/05/19 04:10:36;;;;;;;;;;;9.70;95.90;;;;;;5037843;28;19920;-82
2021/05/19 04:13:04;;;;;;;;;;;9.70;96.20;;;;;;5007202;28;19914;-82
2021/05/19 04:15:30;;;;;;;;;;;9.70;96.60;;;;;;5011945;28;19953;-81
2021/05/19 04:17:57;;;;;;;;;;;9.80;96.90;;;;;;5036068;28;19960;-80
2021/05/19 04:20:22;;;;;;;;;;;9.80;97.20;;;;;;5037226;28;19910;-82
2021/05/19 04:22:48;;;;;;;;;;;9.80;97.50;;;;;;5033022;28;19913;-82
2021/05/19 04:25:14;;;;;;;;;;;9.80;97.80;;;;;;5040317;28;20299;-82
2021/05/19 04:27:40;;;;;;;;;;;9.90;98.10;;;;;;5035895;28;20285;-81
2021/05/19 04:30:07;;;;;;;;;;;9.90;98.30;;;;;;5024621;28;19920;-81
2021/05/19 04:32:32;;;;;;;;;;;10.00;98.10;;;;;;5005294;28;19920;-81
2021/05/19 04:34:58;;;;;;;;;;;10.00;98.30;;;;;;5021169;28;19914;-80
2021/05/19 04:37:23;;;;;;;;;;;10.00;98.60;;;;;;5019647;28;19914;-82
2021/05/19 04:39:49;;;;;;;;;;;10.10;98.90;;;;;;5019037;28;19922;-81
2021/05/19 04:42:14;;;;;;;;;;;10.10;99.30;;;;;;5021001;28;19944;-82
2021/05/19 04:44:40;;;;;;;;;;;10.10;99.60;;;;;;5024101;28;19913;-82
2021/05/19 04:47:05;;;;;;;;;;;10.10;99.90;;;;;;5020574;28;20433;-80
2021/05/19 04:49:31;;;;;;;;;;;10.10;99.90;;;;;;5027721;28;19914;-81
2021/05/19 04:51:56;;;;;;;;;;;10.10;99.90;;;;;;5018779;28;19917;-82
2021/05/19 04:54:22;;;;;;;;;;;10.20;99.90;;;;;;5020834;28;19914;-83
2021/05/19 04:56:47;;;;;;;;;;;10.30;99.90;;;;;;5018962;28;19920;-83
2021/05/19 04:59:13;;;;;;;;;;;10.30;99.90;;;;;;5030868;28;19940;-82
2021/05/19 05:01:38;;;;;;;;;;;10.40;99.90;;;;;;5026998;28;19913;-82
2021/05/19 05:04:04;;;;;;;;;;;10.50;99.90;;;;;;5033127;28;19913;-82
2021/05/19 05:06:29;;;;;;;;;;;10.60;99.90;;;;;;5024989;28;19924;-82
2021/05/19 05:08:55;;;;;;;;;;;10.70;99.90;;;;;;5030379;28;19917;-82
2021/05/19 05:11:20;;;;;;;;;;;10.80;99.90;;;;;;5033121;28;20353;-82
2021/05/19 05:13:46;;;;;;;;;;;10.90;99.90;;;;;;5008808;28;19920;-83
2021/05/19 05:16:14;;;;;;;;;;;11.10;99.90;;;;;;5020336;28;19921;-82
2021/05/19 05:18:40;;;;;;;;;;;11.40;99.90;;;;;;5023571;28;19913;-83
2021/05/19 05:21:06;;;;;;;;;;;11.80;99.90;;;;;;5029060;28;19955;-83
2021/05/19 05:23:32;;;;;;;;;;;12.10;99.90;;;;;;5030581;28;20012;-81
2021/05/19 05:25:57;;;;;;;;;;;12.40;99.90;;;;;;5037044;28;19964;-83
2021/05/19 05:28:23;;;;;;;;;;;12.50;99.90;;;;;;5027472;28;19913;-82
2021/05/19 05:30:49;;;;;;;;;;;12.70;99.90;;;;;;5033141;28;19917;-82
2021/05/19 05:33:14;;;;;;;;;;;12.70;99.90;;;;;;5035153;28;19917;-82
2021/05/19 05:35:40;;;;;;;;;;;12.70;99.90;;;;;;5018212;28;19996;-83
2021/05/19 05:38:05;;;;;;;;;;;12.80;99.90;;;;;;5019190;28;20281;-83
2021/05/19 05:40:31;;;;;;;;;;;13.10;99.90;;;;;;5017778;28;20381;-82
2021/05/19 05:42:56;;;;;;;;;;;13.40;99.90;;;;;;5027450;28;19944;-83
2021/05/19 05:45:22;;;;;;;;;;;13.80;99.90;;;;;;5026176;28;20000;-83
2021/05/19 05:47:47;;;;;;;;;;;14.30;99.90;;;;;;5018137;28;19914;-82
2021/05/19 05:50:13;;;;;;;;;;;14.90;99.90;;;;;;5028784;28;19917;-83
2021/05/19 05:52:38;;;;;;;;;;;16.20;99.20;;;;;;5036372;28;20018;-83
2021/05/19 05:55:05;;;;;;;;;;;18.50;96.20;;;;;;5035573;28;19981;-83
2021/05/19 05:57:31;;;;;;;;;;;21.60;91.40;;;;;;5034705;28;19928;-83
2021/05/19 05:59:57;;;;;;;;;;;25.40;80.00;;;;;;5026839;28;19980;-84
2021/05/19 06:02:22;;;;;;;;;;;28.60;68.10;;;;;;5006354;28;20400;-83
2021/05/19 06:04:48;;;;;;;;;;;31.20;59.80;;;;;;5034298;28;19913;-84
2021/05/19 06:07:13;;;;;;;;;;;33.00;55.40;;;;;;5033365;28;19966;-84
2021/05/19 06:09:49;;;;;;;;;;;34.40;52.90;;;;;;5032489;28;19913;-84
2021/05/19 06:12:15;;;;;;;;;;;34.30;51.70;;;;;;5014141;28;19920;-84
2021/05/19 06:14:40;;;;;;;;;;;33.10;50.80;;;;;;5014337;28;19914;-83
2021/05/19 06:17:06;;;;;;;;;;;33.80;51.50;;;;;;5020925;28;19976;-83
2021/05/19 06:19:31;;;;;;;;;;;35.60;49.90;;;;;;5020697;28;19920;-84
2021/05/19 06:21:57;;;;;;;;;;;37.20;48.20;;;;;;5023692;28;19913;-83
2021/05/19 06:24:22;;;;;;;;;;;38.50;46.60;;;;;;5024359;28;19917;-84
2021/05/19 06:26:48;;;;;;;;;;;39.50;45.20;;;;;;5015662;28;19913;-84
2021/05/19 06:29:14;;;;;;;;;;;40.40;44.00;;;;;;5042778;28;19913;-84
2021/05/19 06:31:40;;;;;;;;;;;41.20;42.50;;;;;;5025347;28;19909;-84
2021/05/19 06:34:05;;;;;;;;;;;42.20;41.20;;;;;;5021493;28;19920;-84
2021/05/19 06:36:31;;;;;;;;;;;43.80;39.70;;;;;;5014917;28;19909;-84
2021/05/19 06:38:57;;;;;;;;;;;44.30;37.60;;;;;;5038665;28;19913;-81
2021/05/19 06:41:22;;;;;;;;;;;45.00;36.60;;;;;;5025549;28;19913;-81
2021/05/19 06:43:48;;;;;;;;;;;46.00;36.80;;;;;;5016304;28;19971;-81
2021/05/19 06:46:13;;;;;;;;;;;46.60;34.80;;;;;;5010614;28;20305;-82
2021/05/19 06:48:39;;;;;;;;;;;45.80;34.70;;;;;;5028048;28;20472;-80
2021/05/19 06:51:05;;;;;;;;;;;42.40;35.40;;;;;;5022236;28;19929;-81
2021/05/19 06:53:30;;;;;;;;;;;38.50;38.00;;;;;;5021535;28;19941;-80
2021/05/19 06:55:57;;;;;;;;;;;34.50;40.70;;;;;;5028675;28;19921;-83
2021/05/19 06:58:22;;;;;;;;;;;33.70;42.00;;;;;;5040268;28;20504;-84
2021/05/19 07:00:48;;;;;;;;;;;36.90;39.80;;;;;;5024343;28;19917;-83
2021/05/19 07:03:13;;;;;;;;;;;38.80;37.20;;;;;;5026427;28;19914;-83
2021/05/19 07:05:39;;;;;;;;;;;39.70;36.30;;;;;;5034710;28;19921;-81
2021/05/19 07:08:06;;;;;;;;;;;40.50;35.70;;;;;;5019879;28;19925;-80
2021/05/19 07:10:32;;;;;;;;;;;38.90;36.10;;;;;;5043394;28;19957;-83
2021/05/19 07:12:57;;;;;;;;;;;38.00;36.40;;;;;;5022901;28;19959;-83
2021/05/19 07:15:23;;;;;;;;;;;35.30;38.60;;;;;;5036939;28;19960;-83
2021/05/19 07:17:49;;;;;;;;;;;33.20;39.80;;;;;;5024716;28;19920;-83
2021/05/19 07:20:14;;;;;;;;;;;30.80;41.30;;;;;;5022003;28;19914;-82
2021/05/19 07:22:40;;;;;;;;;;;28.30;43.00;;;;;;5003189;28;19909;-82
2021/05/19 07:25:06;;;;;;;;;;;26.30;44.70;;;;;;5027923;28;19921;-82
2021/05/19 07:27:32;;;;;;;;;;;24.90;45.80;;;;;;5030904;28;19913;-82
2021/05/19 07:29:59;;;;;;;;;;;23.60;46.20;;;;;;5006904;28;19917;-82
2021/05/19 07:32:24;;;;;;;;;;;22.50;46.80;;;;;;5040097;28;19920;-83
2021/05/19 07:34:49;;;;;;;;;;;21.60;47.30;;;;;;5022017;28;19913;-82
2021/05/19 07:37:15;;;;;;;;;;;20.80;47.90;;;;;;5039959;28;19951;-81
2021/05/19 07:39:40;;;;;;;;;;;20.30;48.30;;;;;;5037220;28;19913;-82
2021/05/19 07:42:06;;;;;;;;;;;20.70;47.90;;;;;;5017082;28;20377;-82
2021/05/19 07:44:31;;;;;;;;;;;21.20;47.90;;;;;;5033177;28;19953;-82
2021/05/19 07:46:58;;;;;;;;;;;21.40;46.90;;;;;;5030649;28;19914;-82
2021/05/19 07:49:23;;;;;;;;;;;21.50;46.70;;;;;;5019260;28;20332;-81
2021/05/19 07:51:49;;;;;;;;;;;21.80;46.40;;;;;;5023941;28;19921;-82
2021/05/19 07:54:23;;;;;;;;;;;23.00;45.50;;;;;;5024336;28;19917;-83
2021/05/19 07:56:59;;;;;;;;;;;24.00;44.80;;;;;;5026287;28;20305;-83
2021/05/19 07:59:27;;;;;;;;;;;24.00;44.30;;;;;;5034857;28;19917;-84
2021/05/19 08:02:01;;;;;;;;;;;23.30;44.90;;;;;;5028190;28;19921;-83
2021/05/19 08:04:28;;;;;;;;;;;22.50;45.50;;;;;;5035829;28;19913;-82
2021/05/19 08:06:53;;;;;;;;;;;21.60;46.20;;;;;;5028939;28;20417;-82
2021/05/19 08:09:19;;;;;;;;;;;20.90;46.80;;;;;;5022616;28;19921;-81
2021/05/19 08:11:46;;;;;;;;;;;20.20;47.30;;;;;;5019260;28;20020;-81
2021/05/19 08:14:12;;;;;;;;;;;19.60;47.80;;;;;;5029357;28;19967;-81
2021/05/19 08:16:37;;;;;;;;;;;19.10;48.30;;;;;;5035873;28;19917;-81
2021/05/19 08:19:03;;;;;;;;;;;18.80;48.60;;;;;;5035932;28;20005;-82
2021/05/19 08:21:28;;;;;;;;;;;18.50;48.80;;;;;;5027525;28;19917;-82
2021/05/19 08:23:54;;;;;;;;;;;18.40;49.00;;;;;;5001826;28;19920;-81
2021/05/19 08:26:19;;;;;;;;;;;18.20;49.00;;;;;;5036173;28;19913;-81
2021/05/19 08:28:46;;;;;;;;;;;18.10;49.20;;;;;;5038638;28;19939;-81
2021/05/19 08:31:13;;;;;;;;;;;18.10;49.20;;;;;;5029345;28;19913;-81
2021/05/19 08:33:40;;;;;;;;;;;18.00;49.30;;;;;;5029617;28;19910;-81
2021/05/19 08:36:05;;;;;;;;;;;18.00;49.40;;;;;;5006623;28;20007;-82
2021/05/19 08:38:31;;;;;;;;;;;18.10;49.40;;;;;;5027522;28;19913;-81
2021/05/19 08:41:01;;;;;;;;;;;18.30;49.30;;;;;;5038791;28;19910;-83
2021/05/19 08:43:27;;;;;;;;;;;18.50;49.20;;;;;;5034535;28;19920;-83
2021/05/19 08:45:52;;;;;;;;;;;19.00;49.20;;;;;;5016173;28;20381;-82
2021/05/19 08:48:18;;;;;;;;;;;19.50;48.80;;;;;;5034493;28;20325;-81
2021/05/19 08:50:46;;;;;;;;;;;20.00;48.40;;;;;;5032745;28;19960;-83
2021/05/19 08:53:12;;;;;;;;;;;21.10;48.10;;;;;;5025277;28;19913;-84
2021/05/19 08:55:37;;;;;;;;;;;23.20;47.00;;;;;;5035627;28;20292;-81
2021/05/19 08:58:03;;;;;;;;;;;24.50;45.30;;;;;;5025948;28;19924;-82
2021/05/19 09:00:29;;;;;;;;;;;24.80;45.20;;;;;;5041880;28;19913;-84
2021/05/19 09:03:11;;;;;;;;;;;25.20;45.00;;;;;;5051357;28;19971;-84
2021/05/19 09:05:38;;;;;;;;;;;24.90;45.10;;;;;;5017619;28;19920;-84
2021/05/19 09:08:07;;;;;;;;;;;26.20;44.80;;;;;;5037557;28;19913;-83
2021/05/19 09:10:35;;;;;;;;;;;27.70;43.50;;;;;;5033184;28;19921;-82
2021/05/19 09:13:01;;;;;;;;;;;30.60;42.50;;;;;;5031037;28;19920;-85
2021/05/19 09:15:47;;;;;;;;;;;34.00;39.90;;;;;;5023900;28;19917;-84
2021/05/19 09:18:12;;;;;;;;;;;35.20;39.30;;;;;;5012945;28;19913;-84
2021/05/19 09:20:48;;;;;;;;;;;37.00;38.40;;;;;;5022736;28;19956;-85
2021/05/19 09:23:17;;;;;;;;;;;38.40;38.10;;;;;;5029788;28;20400;-84
2021/05/19 09:25:43;;;;;;;;;;;39.70;37.60;;;;;;5014174;28;19952;-85
2021/05/19 09:28:09;;;;;;;;;;;39.60;36.80;;;;;;5019947;28;19913;-84
2021/05/19 09:30:42;;;;;;;;;;;37.30;38.10;;;;;;5039011;28;19970;-84
2021/05/19 09:33:24;;;;;;;;;;;35.70;39.60;;;;;;5031927;28;19948;-85
2021/05/19 09:36:08;;;;;;;;;;;34.70;40.80;;;;;;5022223;28;19939;-84
2021/05/19 09:38:33;;;;;;;;;;;34.50;40.10;;;;;;5031743;28;19913;-85
2021/05/19 09:41:17;;;;;;;;;;;32.80;41.10;;;;;;5035994;28;19920;-84
2021/05/19 09:43:43;;;;;;;;;;;31.40;42.40;;;;;;5032032;28;19960;-83
2021/05/19 09:48:44;;;;;;;;;;;28.20;43.60;;;;;;5034238;28;19920;-83
2021/05/19 09:51:09;;;;;;;;;;;26.50;44.60;;;;;;5037811;28;19917;-83
2021/05/19 09:53:35;;;;;;;;;;;25.10;45.40;;;;;;5036578;28;19913;-83
2021/05/19 09:56:00;;;;;;;;;;;24.00;46.00;;;;;;5039154;28;19948;-83
2021/05/19 09:58:37;;;;;;;;;;;23.10;46.50;;;;;;5031457;28;20360;-83
2021/05/19 10:01:03;;;;;;;;;;;22.60;46.80;;;;;;5025390;28;19924;-83
2021/05/19 10:03:29;;;;;;;;;;;22.40;46.90;;;;;;5019598;28;19909;-82
2021/05/19 10:24:43;;;;;;;;;;;35.10;39.90;;;;;;5111454;27;19920;-84
2021/05/19 10:27:09;;;;;;;;;;;35.60;38.90;;;;;;5093520;28;19927;-83
2021/05/19 10:29:47;;;;;;;;;;;33.40;39.90;;;;;;5084681;28;20368;-82
2021/05/19 10:32:22;;;;;;;;;;;31.20;41.10;;;;;;5091528;28;19938;-82
2021/05/19 10:34:48;;;;;;;;;;;29.00;42.40;;;;;;5083302;28;19912;-82
2021/05/19 10:37:34;;;;;;;;;;;27.30;43.50;;;;;;5094033;28;19946;-82
2021/05/19 10:40:08;;;;;;;;;;;25.80;44.30;;;;;;5089135;28;19913;-82
2021/05/19 10:42:41;;;;;;;;;;;24.40;45.10;;;;;;5101549;28;20300;-82
2021/05/19 10:45:09;;;;;;;;;;;23.20;45.60;;;;;;5084158;28;19919;-82
2021/05/19 10:47:36;;;;;;;;;;;22.40;46.10;;;;;;5075861;28;19912;-82
2021/05/19 10:50:16;;;;;;;;;;;22.00;46.40;;;;;;5100352;28;20307;-82
2021/05/19 10:58:28;;;;;;;;;;;22.20;46.10;;;;;;5074775;28;19915;-82
2021/05/19 11:00:53;;;;;;;;;;;21.90;46.10;;;;;;5107224;28;19999;-82
2021/05/19 11:03:18;;;;;;;;;;;21.30;46.30;;;;;;5099091;28;20344;-82
2021/05/19 11:05:54;;;;;;;;;;;20.90;46.50;;;;;;5092058;28;19912;-82
2021/05/19 11:08:19;;;;;;;;;;;20.70;46.60;;;;;;5084422;28;19917;-82
2021/05/19 11:10:47;;;;;;;;;;;20.50;46.60;;;;;;5090701;28;20383;-82
2021/05/19 11:13:13;;;;;;;;;;;20.20;46.60;;;;;;5095164;28;19912;-82
2021/05/19 11:15:45;;;;;;;;;;;19.90;46.80;;;;;;5095929;28;19912;-82
2021/05/19 11:18:17;;;;;;;;;;;19.90;47.00;;;;;;5096735;28;20351;-82
2021/05/19 11:20:42;;;;;;;;;;;20.30;46.90;;;;;;5086273;28;19974;-82
2021/05/19 11:23:11;;;;;;;;;;;21.50;46.80;;;;;;5100869;28;19916;-82
2021/05/19 11:25:36;;;;;;;;;;;23.70;45.90;;;;;;5080761;28;20463;-83
2021/05/19 11:28:02;;;;;;;;;;;25.80;44.90;;;;;;5082835;28;20034;-83
2021/05/19 11:30:29;;;;;;;;;;;27.70;44.00;;;;;;5099919;28;20361;-84
2021/05/19 11:33:05;;;;;;;;;;;29.40;42.90;;;;;;5100249;28;19997;-84
2021/05/19 11:35:31;;;;;;;;;;;29.70;42.40;;;;;;5076999;28;19915;-84
2021/05/19 11:37:57;;;;;;;;;;;29.30;42.00;;;;;;5076904;28;19912;-83
2021/05/19 11:40:34;;;;;;;;;;;28.90;42.80;;;;;;5088052;28;19915;-83
2021/05/19 11:43:00;;;;;;;;;;;29.80;43.00;;;;;;5072735;28;19913;-83
2021/05/19 11:45:26;;;;;;;;;;;29.80;42.00;;;;;;5072162;28;19916;-83
2021/05/19 11:47:51;;;;;;;;;;;29.30;42.20;;;;;;5077116;28;19955;-83
2021/05/19 11:50:24;;;;;;;;;;;29.60;42.30;;;;;;5078656;28;20388;-83
2021/05/19 11:52:54;;;;;;;;;;;28.90;42.40;;;;;;5069710;28;19912;-83
2021/05/19 11:55:34;;;;;;;;;;;29.60;42.70;;;;;;5071668;28;20538;-81
2021/05/19 11:58:03;;;;;;;;;;;29.40;42.50;;;;;;5076624;28;19916;-82
2021/05/19 12:00:32;;;;;;;;;;;28.80;42.10;;;;;;5077808;28;20414;-82
2021/05/19 12:02:58;;;;;;;;;;;28.10;42.50;;;;;;5079982;28;19916;-82
2021/05/19 12:05:24;;;;;;;;;;;27.50;42.80;;;;;;5070040;28;19909;-80
2021/05/19 12:07:50;;;;;;;;;;;27.10;43.10;;;;;;5079236;28;19934;-82
2021/05/19 12:10:15;;;;;;;;;;;26.90;43.00;;;;;;5065234;28;19915;-80
2021/05/19 12:12:41;;;;;;;;;;;26.50;43.30;;;;;;5058710;28;20036;-81
2021/05/19 12:15:07;;;;;;;;;;;26.30;43.40;;;;;;5077661;28;19966;-82
2021/05/19 12:17:33;;;;;;;;;;;26.00;43.30;;;;;;5072195;28;19913;-80
2021/05/19 12:19:58;;;;;;;;;;;25.70;43.40;;;;;;5069955;28;20284;-82
2021/05/19 12:22:24;;;;;;;;;;;25.30;43.70;;;;;;5075604;28;19916;-82
2021/05/19 12:24:51;;;;;;;;;;;24.70;43.70;;;;;;5058815;28;19929;-81
2021/05/19 12:27:17;;;;;;;;;;;24.20;43.90;;;;;;5054505;28;19940;-82
2021/05/19 12:29:46;;;;;;;;;;;24.70;44.20;;;;;;5040261;28;20343;-82
2021/05/19 12:32:14;;;;;;;;;;;25.10;43.30;;;;;;5044021;28;20011;-83
2021/05/19 12:34:40;;;;;;;;;;;25.70;43.10;;;;;;5043930;28;19920;-82
2021/05/19 12:37:06;;;;;;;;;;;26.60;42.00;;;;;;5041297;28;20000;-82
2021/05/19 12:39:32;;;;;;;;;;;26.40;42.10;;;;;;5052959;28;19917;-83
2021/05/19 12:42:00;;;;;;;;;;;25.90;42.50;;;;;;5043212;28;19913;-83
2021/05/19 12:44:31;;;;;;;;;;;25.30;42.90;;;;;;5055630;28;19966;-82
2021/05/19 12:47:02;;;;;;;;;;;24.50;43.20;;;;;;5046514;28;19998;-82
2021/05/19 12:49:28;;;;;;;;;;;24.00;43.50;;;;;;5035161;28;19913;-82
2021/05/19 12:51:57;;;;;;;;;;;23.80;43.70;;;;;;5049325;28;19951;-82
2021/05/19 12:54:28;;;;;;;;;;;23.60;43.80;;;;;;5044145;28;19971;-82
2021/05/19 12:56:57;;;;;;;;;;;23.50;43.70;;;;;;5038665;28;19913;-83
2021/05/19 12:59:23;;;;;;;;;;;23.80;43.60;;;;;;5058987;28;19909;-82
2021/05/19 13:01:48;;;;;;;;;;;24.10;43.30;;;;;;5057771;28;19931;-82
2021/05/19 13:04:15;;;;;;;;;;;23.90;43.30;;;;;;5060068;28;20281;-82
2021/05/19 13:06:41;;;;;;;;;;;23.70;43.40;;;;;;5032072;28;19948;-82
2021/05/19 13:09:07;;;;;;;;;;;23.40;43.50;;;;;;5056494;28;20293;-83
2021/05/19 13:11:35;;;;;;;;;;;23.10;43.60;;;;;;5049328;28;20401;-82
2021/05/19 13:14:02;;;;;;;;;;;22.70;43.80;;;;;;5058265;28;19916;-82
2021/05/19 13:16:35;;;;;;;;;;;22.40;43.90;;;;;;5058959;28;19952;-80
2021/05/19 13:19:11;;;;;;;;;;;22.40;44.10;;;;;;5037425;28;19985;-82
2021/05/19 13:21:48;;;;;;;;;;;22.70;44.10;;;;;;5065393;28;19994;-82
2021/05/19 13:24:17;;;;;;;;;;;23.20;43.90;;;;;;5061817;28;19923;-82
2021/05/19 13:26:43;;;;;;;;;;;23.40;43.50;;;;;;5066189;28;19962;-83
2021/05/19 13:29:13;;;;;;;;;;;24.00;43.40;;;;;;5075700;28;19916;-83
2021/05/19 13:37:04;;;;;;;;;;;25.20;42.70;;;;;;5071508;28;19919;-82
2021/05/19 13:39:30;;;;;;;;;;;24.80;42.70;;;;;;5062617;28;19912;-83
2021/05/19 13:41:57;;;;;;;;;;;24.40;43.00;;;;;;5069974;28;19913;-83
2021/05/19 13:44:23;;;;;;;;;;;24.00;43.30;;;;;;5059384;28;20627;-82
2021/05/19 13:46:50;;;;;;;;;;;23.60;43.50;;;;;;5060466;28;19908;-83
2021/05/19 13:49:21;;;;;;;;;;;23.30;43.60;;;;;;5075943;28;19938;-83
2021/05/19 13:51:52;;;;;;;;;;;23.00;43.70;;;;;;5061088;28;19919;-83
2021/05/19 13:54:18;;;;;;;;;;;22.80;43.80;;;;;;5059860;28;19923;-82
2021/05/19 13:56:44;;;;;;;;;;;22.70;43.90;;;;;;5077919;28;19912;-83
2021/05/19 13:59:09;;;;;;;;;;;22.60;43.90;;;;;;5069667;28;20288;-83
2021/05/19 14:01:35;;;;;;;;;;;22.30;43.80;;;;;;5077189;28;19920;-83
2021/05/19 14:04:02;;;;;;;;;;;22.00;43.90;;;;;;5075345;28;19912;-83
2021/05/19 14:06:27;;;;;;;;;;;21.70;44.10;;;;;;5060787;28;19913;-83
2021/05/19 14:08:53;;;;;;;;;;;21.30;44.10;;;;;;5068526;28;19912;-83
2021/05/19 14:11:20;;;;;;;;;;;21.00;44.40;;;;;;5059404;28;19919;-83
2021/05/19 14:13:55;;;;;;;;;;;20.70;44.50;;;;;;5061333;28;19913;-83
2021/05/19 14:27:19;;;;;;;;;;;19.40;45.50;;;;;;5077563;28;19915;-83
2021/05/19 14:29:49;;;;;;;;;;;19.10;45.70;;;;;;5060864;28;20291;-83
2021/05/19 14:32:15;;;;;;;;;;;18.90;45.90;;;;;;5077095;28;19993;-83
2021/05/19 14:34:41;;;;;;;;;;;18.80;46.10;;;;;;5077232;28;19966;-83
2021/05/19 14:45:30;;;;;;;;;;;18.60;46.50;;;;;;5099961;28;19919;-82
2021/05/19 14:59:04;;;;;;;;;;;18.90;46.80;;;;;;5063402;28;19920;-83
2021/05/19 15:01:29;;;;;;;;;;;19.10;46.80;;;;;;5114706;28;20359;-83
2021/05/19 15:03:55;;;;;;;;;;;19.50;46.70;;;;;;5075339;28;20038;-83
2021/05/19 15:06:20;;;;;;;;;;;19.90;46.60;;;;;;5078044;28;19944;-83
2021/05/19 15:08:46;;;;;;;;;;;20.40;46.50;;;;;;5078578;28;19912;-83
2021/05/19 15:11:11;;;;;;;;;;;20.70;46.20;;;;;;5081257;28;19919;-83
2021/05/19 15:13:37;;;;;;;;;;;20.80;46.20;;;;;;5081469;28;19920;-83
2021/05/19 15:16:03;;;;;;;;;;;20.80;46.30;;;;;;5078701;28;19915;-83
2021/05/19 15:18:28;;;;;;;;;;;20.70;46.30;;;;;;5091121;28;19955;-83
2021/05/19 15:20:53;;;;;;;;;;;20.50;46.40;;;;;;5093859;28;19908;-83
2021/05/19 15:23:19;;;;;;;;;;;20.20;46.60;;;;;;5074302;28;19940;-84